Time;durP1;ratioP1;P1;durP2;ratioP2;P2;SDS_P1;SDS_P2;PMS_P1;PMS_P2;Temp;Humidity;BMP_temperature;BMP_pressure;BME280_temperature;BME280_humidity;BME280_pressure;Samples;Min_cycle;Max_cycle;Signal;HPM_P1;HPM_P2
2024/03/18 00:00:16;;;;;;;10.40;6.90;;;;;;;;;;694757;28;961;-68
2024/03/18 00:00:39;;;;;;;10.30;7.05;;;;;;;;;;695937;28;924;-67
2024/03/18 00:01:00;;;;;;;9.35;6.57;;;;;;;;;;693555;28;899;-68
2024/03/18 00:01:21;;;;;;;10.95;6.43;;;;;;;;;;695848;28;2453;-67
2024/03/18 00:01:41;;;;;;;11.90;6.87;;;;;;;;;;699624;28;4409;-68
2024/03/18 00:02:03;;;;;;;12.35;7.05;;;;;;;;;;700729;28;1266;-67
2024/03/18 00:02:25;;;;;;;12.05;7.13;;;;;;;;;;699900;28;2539;-68
2024/03/18 00:02:46;;;;;;;11.13;7.18;;;;;;;;;;700421;28;1459;-68
2024/03/18 00:03:06;;;;;;;9.85;6.60;;;;;;;;;;701230;28;829;-67
2024/03/18 00:03:27;;;;;;;10.43;6.63;;;;;;;;;;701680;28;1651;-67
2024/03/18 00:03:48;;;;;;;11.00;6.75;;;;;;;;;;700271;28;1048;-68
2024/03/18 00:04:08;;;;;;;10.85;6.65;;;;;;;;;;700125;28;1209;-67
2024/03/18 00:04:29;;;;;;;10.17;6.77;;;;;;;;;;696362;28;1871;-68
2024/03/18 00:04:50;;;;;;;9.37;6.40;;;;;;;;;;694473;28;4464;-68
2024/03/18 00:05:11;;;;;;;10.98;6.72;;;;;;;;;;694831;28;1236;-68
2024/03/18 00:05:32;;;;;;;10.48;6.53;;;;;;;;;;697878;28;1253;-68
2024/03/18 00:05:53;;;;;;;11.30;6.85;;;;;;;;;;697691;28;1381;-67
2024/03/18 00:06:14;;;;;;;10.07;6.65;;;;;;;;;;697151;28;1520;-67
2024/03/18 00:06:35;;;;;;;10.27;6.50;;;;;;;;;;696467;28;1360;-67
2024/03/18 00:06:55;;;;;;;11.13;6.67;;;;;;;;;;698162;28;1159;-69
2024/03/18 00:07:16;;;;;;;9.52;6.60;;;;;;;;;;693551;28;1432;-69
2024/03/18 00:07:36;;;;;;;10.33;7.17;;;;;;;;;;695612;28;4532;-68
2024/03/18 00:07:56;;;;;;;10.73;6.80;;;;;;;;;;694825;28;1127;-67
2024/03/18 00:08:17;;;;;;;9.87;6.50;;;;;;;;;;696202;28;1476;-68
2024/03/18 00:08:37;;;;;;;9.83;6.60;;;;;;;;;;699348;28;825;-68
2024/03/18 00:08:57;;;;;;;10.30;7.30;;;;;;;;;;701224;28;870;-67
2024/03/18 00:09:18;;;;;;;9.97;6.73;;;;;;;;;;699685;28;1369;-68
2024/03/18 00:09:38;;;;;;;9.17;6.70;;;;;;;;;;700889;28;1977;-69
2024/03/18 00:09:58;;;;;;;10.80;7.05;;;;;;;;;;699463;28;1203;-69
2024/03/18 00:10:19;;;;;;;11.03;7.10;;;;;;;;;;698510;28;1751;-70
2024/03/18 00:10:39;;;;;;;10.98;6.78;;;;;;;;;;700617;28;4254;-69
2024/03/18 00:11:00;;;;;;;11.87;6.70;;;;;;;;;;701140;28;803;-68
2024/03/18 00:11:21;;;;;;;12.63;6.82;;;;;;;;;;699177;28;1734;-68
2024/03/18 00:11:41;;;;;;;11.07;6.60;;;;;;;;;;700404;28;1290;-68
2024/03/18 00:12:02;;;;;;;11.97;6.80;;;;;;;;;;700157;28;853;-68
2024/03/18 00:12:22;;;;;;;11.07;6.70;;;;;;;;;;696440;28;2289;-68
2024/03/18 00:12:43;;;;;;;10.67;6.77;;;;;;;;;;697468;28;1352;-68
2024/03/18 00:13:04;;;;;;;10.00;6.97;;;;;;;;;;697837;28;1155;-69
2024/03/18 00:13:24;;;;;;;9.75;6.57;;;;;;;;;;696566;28;1702;-69
2024/03/18 00:13:45;;;;;;;11.13;7.10;;;;;;;;;;697644;28;4215;-67
2024/03/18 00:14:05;;;;;;;12.18;7.32;;;;;;;;;;700637;28;952;-68
2024/03/18 00:14:27;;;;;;;11.68;7.07;;;;;;;;;;698910;28;2272;-69
2024/03/18 00:14:48;;;;;;;9.80;6.90;;;;;;;;;;700853;28;900;-67
2024/03/18 00:15:10;;;;;;;9.95;6.95;;;;;;;;;;698267;28;1176;-68
2024/03/18 00:15:30;;;;;;;10.52;6.53;;;;;;;;;;699079;28;1902;-67
2024/03/18 00:15:51;;;;;;;10.77;6.60;;;;;;;;;;700549;28;924;-67
2024/03/18 00:16:11;;;;;;;9.33;6.10;;;;;;;;;;700071;28;1046;-67
2024/03/18 00:16:31;;;;;;;9.33;6.10;;;;;;;;;;699517;28;1087;-68
2024/03/18 00:16:51;;;;;;;9.38;6.40;;;;;;;;;;697665;28;4233;-67
2024/03/18 00:17:13;;;;;;;10.13;6.73;;;;;;;;;;698144;28;1010;-69
2024/03/18 00:17:36;;;;;;;9.55;6.60;;;;;;;;;;695772;28;1892;-67
2024/03/18 00:17:57;;;;;;;9.93;6.43;;;;;;;;;;693329;28;888;-68
2024/03/18 00:18:17;;;;;;;9.43;6.53;;;;;;;;;;693383;28;1482;-67
2024/03/18 00:18:37;;;;;;;10.05;6.45;;;;;;;;;;697581;28;984;-67
2024/03/18 00:18:57;;;;;;;10.77;6.50;;;;;;;;;;697835;28;921;-68
2024/03/18 00:19:18;;;;;;;10.30;6.73;;;;;;;;;;693792;28;1993;-68
2024/03/18 00:19:38;;;;;;;10.93;7.07;;;;;;;;;;694333;28;4490;-68
2024/03/18 00:19:59;;;;;;;10.27;6.90;;;;;;;;;;694986;28;865;-68
2024/03/18 00:20:19;;;;;;;10.23;6.75;;;;;;;;;;696123;28;921;-67
2024/03/18 00:20:40;;;;;;;14.32;6.97;;;;;;;;;;696974;28;908;-68
2024/03/18 00:21:00;;;;;;;11.07;6.73;;;;;;;;;;693630;28;948;-68
2024/03/18 00:21:20;;;;;;;10.40;6.97;;;;;;;;;;694562;28;1802;-68
2024/03/18 00:21:41;;;;;;;10.23;6.68;;;;;;;;;;699607;28;785;-68
2024/03/18 00:22:01;;;;;;;10.10;6.70;;;;;;;;;;700036;28;802;-68
2024/03/18 00:22:22;;;;;;;10.97;6.93;;;;;;;;;;695541;28;1899;-68
2024/03/18 00:22:43;;;;;;;10.93;7.07;;;;;;;;;;695460;28;4266;-69
2024/03/18 00:23:03;;;;;;;12.13;7.00;;;;;;;;;;696696;28;2217;-68
2024/03/18 00:23:25;;;;;;;11.05;6.85;;;;;;;;;;693599;28;4907;-68
2024/03/18 00:23:45;;;;;;;10.88;7.00;;;;;;;;;;694790;28;920;-69
2024/03/18 00:24:05;;;;;;;9.47;6.73;;;;;;;;;;695813;28;1169;-67
2024/03/18 00:24:26;;;;;;;10.37;7.03;;;;;;;;;;696548;28;1746;-68
2024/03/18 00:24:47;;;;;;;11.20;7.25;;;;;;;;;;697552;28;814;-68
2024/03/18 00:25:08;;;;;;;10.68;6.88;;;;;;;;;;697785;28;1354;-68
2024/03/18 00:25:28;;;;;;;10.43;6.95;;;;;;;;;;697938;28;1732;-67
2024/03/18 00:25:48;;;;;;;11.43;7.37;;;;;;;;;;700157;28;4218;-67
2024/03/18 00:26:09;;;;;;;13.10;7.40;;;;;;;;;;700099;28;1294;-68
2024/03/18 00:26:29;;;;;;;12.38;7.32;;;;;;;;;;698349;28;1489;-67
2024/03/18 00:26:49;;;;;;;12.60;6.80;;;;;;;;;;696507;28;1058;-68
2024/03/18 00:27:09;;;;;;;10.77;6.73;;;;;;;;;;694812;28;862;-67
2024/03/18 00:27:30;;;;;;;10.18;6.72;;;;;;;;;;694169;28;1785;-67
2024/03/18 00:27:50;;;;;;;10.63;6.67;;;;;;;;;;694572;28;1235;-67
2024/03/18 00:28:12;;;;;;;10.90;6.80;;;;;;;;;;694994;28;826;-68
2024/03/18 00:28:33;;;;;;;11.02;6.88;;;;;;;;;;694075;28;1764;-67
2024/03/18 00:28:53;;;;;;;11.40;7.13;;;;;;;;;;697915;28;4280;-66
2024/03/18 00:29:13;;;;;;;10.60;7.10;;;;;;;;;;696409;28;2509;-68
2024/03/18 00:29:34;;;;;;;12.40;7.65;;;;;;;;;;697538;28;1960;-66
2024/03/18 00:29:54;;;;;;;11.30;7.10;;;;;;;;;;695017;28;1103;-67
2024/03/18 00:30:15;;;;;;;10.63;6.90;;;;;;;;;;694379;28;2401;-67
2024/03/18 00:30:35;;;;;;;9.90;6.80;;;;;;;;;;697862;28;806;-67
2024/03/18 00:30:55;;;;;;;10.83;7.00;;;;;;;;;;697244;28;1293;-68
2024/03/18 00:31:15;;;;;;;10.20;7.00;;;;;;;;;;699366;28;1505;-67
2024/03/18 00:31:36;;;;;;;10.93;7.43;;;;;;;;;;699434;28;4393;-68
2024/03/18 00:31:56;;;;;;;10.77;7.70;;;;;;;;;;694791;28;1247;-67
2024/03/18 00:32:18;;;;;;;11.43;7.50;;;;;;;;;;694633;28;1841;-67
2024/03/18 00:32:41;;;;;;;12.25;6.90;;;;;;;;;;695104;28;1207;-68
2024/03/18 00:33:01;;;;;;;10.48;7.07;;;;;;;;;;694005;28;940;-67
2024/03/18 00:33:22;;;;;;;10.70;7.47;;;;;;;;;;693938;28;1480;-66
2024/03/18 00:33:42;;;;;;;11.55;7.18;;;;;;;;;;696490;28;999;-67
2024/03/18 00:34:03;;;;;;;10.65;7.00;;;;;;;;;;700954;28;861;-67
2024/03/18 00:34:23;;;;;;;11.20;7.37;;;;;;;;;;696856;28;2175;-66
2024/03/18 00:34:44;;;;;;;13.10;7.60;;;;;;;;;;693985;28;4506;-67
2024/03/18 00:35:05;;;;;;;10.93;7.40;;;;;;;;;;697216;28;1223;-66
2024/03/18 00:35:25;;;;;;;10.70;7.30;;;;;;;;;;695949;28;2092;-67
2024/03/18 00:35:46;;;;;;;11.00;7.32;;;;;;;;;;698002;28;1145;-66
2024/03/18 00:36:06;;;;;;;11.23;7.30;;;;;;;;;;698387;28;1121;-66
2024/03/18 00:36:26;;;;;;;11.53;7.27;;;;;;;;;;698747;28;1461;-66
2024/03/18 00:36:46;;;;;;;11.80;7.70;;;;;;;;;;698092;28;1113;-68
2024/03/18 00:37:07;;;;;;;12.73;7.70;;;;;;;;;;696709;28;3762;-65
2024/03/18 00:37:27;;;;;;;11.90;7.43;;;;;;;;;;697455;28;1835;-67
2024/03/18 00:37:48;;;;;;;11.77;7.38;;;;;;;;;;699018;28;4489;-66
2024/03/18 00:38:08;;;;;;;11.93;7.63;;;;;;;;;;701004;28;1038;-66
2024/03/18 00:38:28;;;;;;;12.52;7.55;;;;;;;;;;697197;28;1856;-66
2024/03/18 00:38:48;;;;;;;12.43;7.40;;;;;;;;;;698138;28;1122;-66
2024/03/18 00:39:09;;;;;;;13.00;7.60;;;;;;;;;;697844;28;1321;-66
2024/03/18 00:39:29;;;;;;;12.43;7.83;;;;;;;;;;697064;28;1701;-68
2024/03/18 00:39:49;;;;;;;12.10;7.37;;;;;;;;;;700993;28;1221;-65
2024/03/18 00:40:10;;;;;;;12.80;7.50;;;;;;;;;;701036;28;1219;-66
2024/03/18 00:40:31;;;;;;;12.02;7.20;;;;;;;;;;700825;28;1769;-67
2024/03/18 00:41:44;;;;;;;12.07;7.55;;;;;;;;;;701966;28;1729;-66
2024/03/18 00:41:44;;;;;;;11.57;7.43;;;;;;;;;;700955;28;4564;-66
2024/03/18 00:42:05;;;;;;;11.88;7.32;;;;;;;;;;697192;28;1301;-67
2024/03/18 00:42:26;;;;;;;11.97;7.73;;;;;;;;;;696500;28;1478;-66
2024/03/18 00:42:47;;;;;;;12.40;7.78;;;;;;;;;;699893;28;1310;-66
2024/03/18 00:43:07;;;;;;;12.50;7.65;;;;;;;;;;697351;28;908;-67
2024/03/18 00:43:28;;;;;;;12.63;7.45;;;;;;;;;;697379;28;1719;-67
2024/03/18 00:43:48;;;;;;;13.53;7.90;;;;;;;;;;700039;28;4487;-67
2024/03/18 00:44:08;;;;;;;12.68;7.60;;;;;;;;;;703150;28;1112;-67
2024/03/18 00:44:29;;;;;;;11.37;7.37;;;;;;;;;;699913;28;2403;-68
2024/03/18 00:44:49;;;;;;;12.47;7.57;;;;;;;;;;700828;28;837;-67
2024/03/18 00:45:10;;;;;;;12.50;7.88;;;;;;;;;;700886;28;928;-67
2024/03/18 00:45:30;;;;;;;13.23;7.90;;;;;;;;;;699059;28;2827;-67
2024/03/18 00:45:51;;;;;;;12.50;7.80;;;;;;;;;;700310;28;971;-68
2024/03/18 00:46:11;;;;;;;12.13;7.43;;;;;;;;;;700609;28;904;-68
2024/03/18 00:46:31;;;;;;;12.32;7.70;;;;;;;;;;698218;28;2015;-68
2024/03/18 00:46:52;;;;;;;14.50;7.90;;;;;;;;;;695773;28;4264;-68
2024/03/18 00:47:12;;;;;;;14.20;8.07;;;;;;;;;;695690;28;1288;-67
2024/03/18 00:47:33;;;;;;;12.13;7.87;;;;;;;;;;695697;28;1480;-68
2024/03/18 00:47:53;;;;;;;13.27;7.77;;;;;;;;;;697653;28;777;-68
2024/03/18 00:48:13;;;;;;;13.37;7.57;;;;;;;;;;697503;28;903;-68
2024/03/18 00:48:34;;;;;;;13.75;8.10;;;;;;;;;;697597;28;1944;-69
2024/03/18 00:48:55;;;;;;;12.73;7.80;;;;;;;;;;700315;28;1002;-68
2024/03/18 00:49:15;;;;;;;12.37;7.93;;;;;;;;;;698678;28;970;-67
2024/03/18 00:49:35;;;;;;;14.13;8.25;;;;;;;;;;695636;28;1984;-67
2024/03/18 00:49:56;;;;;;;13.70;8.20;;;;;;;;;;697347;28;4414;-68
2024/03/18 00:50:17;;;;;;;13.32;8.45;;;;;;;;;;697067;28;1978;-67
2024/03/18 00:50:37;;;;;;;13.10;8.37;;;;;;;;;;701885;28;1208;-68
2024/03/18 00:50:57;;;;;;;12.87;8.20;;;;;;;;;;701053;28;974;-68
2024/03/18 00:51:17;;;;;;;12.50;7.97;;;;;;;;;;697062;28;1814;-68
2024/03/18 00:51:38;;;;;;;13.03;7.23;;;;;;;;;;700225;28;875;-69
2024/03/18 00:51:58;;;;;;;12.43;7.50;;;;;;;;;;700771;28;1383;-68
2024/03/18 00:52:19;;;;;;;12.47;8.07;;;;;;;;;;699187;28;1017;-68
2024/03/18 00:52:39;;;;;;;12.57;8.10;;;;;;;;;;696840;28;4216;-68
2024/03/18 00:52:59;;;;;;;12.03;8.00;;;;;;;;;;696718;28;923;-68
2024/03/18 00:53:19;;;;;;;12.60;7.80;;;;;;;;;;698655;28;2485;-69
2024/03/18 00:53:40;;;;;;;12.40;8.30;;;;;;;;;;699001;28;1293;-68
2024/03/18 00:54:00;;;;;;;11.90;8.32;;;;;;;;;;697390;28;1298;-69
2024/03/18 00:54:20;;;;;;;13.50;8.50;;;;;;;;;;695843;28;1465;-68
2024/03/18 00:54:41;;;;;;;13.03;8.03;;;;;;;;;;699135;28;4292;-68
2024/03/18 00:55:01;;;;;;;11.90;7.53;;;;;;;;;;698441;28;884;-68
2024/03/18 00:55:21;;;;;;;12.47;7.43;;;;;;;;;;698382;28;1724;-67
2024/03/18 00:55:41;;;;;;;12.57;7.70;;;;;;;;;;696636;28;4496;-67
2024/03/18 00:56:06;;;;;;;12.88;8.10;;;;;;;;;;700289;28;937;-69
2024/03/18 00:56:27;;;;;;;12.77;8.20;;;;;;;;;;699659;28;1758;-69
2024/03/18 00:56:48;;;;;;;14.00;8.30;;;;;;;;;;700683;28;844;-68
2024/03/18 00:57:08;;;;;;;13.00;7.93;;;;;;;;;;699930;28;1269;-68
2024/03/18 00:57:28;;;;;;;13.83;8.77;;;;;;;;;;698488;28;1698;-67
2024/03/18 00:57:48;;;;;;;14.00;8.80;;;;;;;;;;697660;28;1010;-68
2024/03/18 00:58:09;;;;;;;12.43;8.67;;;;;;;;;;698037;28;884;-68
2024/03/18 00:58:29;;;;;;;12.17;8.40;;;;;;;;;;697445;28;1454;-66
2024/03/18 00:58:49;;;;;;;12.55;8.35;;;;;;;;;;699799;28;4576;-70
2024/03/18 00:59:10;;;;;;;13.77;8.23;;;;;;;;;;700077;28;1268;-68
2024/03/18 00:59:30;;;;;;;13.77;8.52;;;;;;;;;;699133;28;1799;-68
2024/03/18 00:59:51;;;;;;;12.67;8.03;;;;;;;;;;702806;28;805;-68
2024/03/18 01:00:12;;;;;;;12.07;8.02;;;;;;;;;;702410;28;1292;-69
2024/03/18 01:00:32;;;;;;;13.55;8.48;;;;;;;;;;700905;28;2302;-69
2024/03/18 01:00:52;;;;;;;14.97;8.70;;;;;;;;;;700585;28;928;-69
2024/03/18 01:01:12;;;;;;;13.97;8.27;;;;;;;;;;700897;28;813;-69
2024/03/18 01:03:08;;;;;;;12.75;8.77;;;;;;;;;;700046;28;5020;-68
2024/03/18 01:03:29;;;;;;;12.65;8.15;;;;;;;;;;694979;28;4258;-69
2024/03/18 01:03:50;;;;;;;12.45;8.20;;;;;;;;;;701131;28;781;-69
2024/03/18 01:04:10;;;;;;;14.07;8.47;;;;;;;;;;700674;28;904;-69
2024/03/18 01:04:30;;;;;;;13.20;8.67;;;;;;;;;;697927;28;1793;-70
2024/03/18 01:04:50;;;;;;;14.13;8.77;;;;;;;;;;701082;28;903;-68
2024/03/18 01:05:11;;;;;;;13.93;8.77;;;;;;;;;;697684;28;1512;-71
2024/03/18 01:05:31;;;;;;;13.60;8.33;;;;;;;;;;696289;28;1114;-70
2024/03/18 01:05:51;;;;;;;12.73;8.23;;;;;;;;;;699291;28;904;-71
2024/03/18 01:06:11;;;;;;;14.17;8.70;;;;;;;;;;699394;28;977;-69
2024/03/18 01:06:32;;;;;;;12.13;8.17;;;;;;;;;;699402;28;1609;-70
2024/03/18 01:06:52;;;;;;;12.63;8.43;;;;;;;;;;699836;28;912;-69
2024/03/18 01:07:12;;;;;;;12.97;8.47;;;;;;;;;;699369;28;959;-70
2024/03/18 01:07:33;;;;;;;14.48;8.98;;;;;;;;;;699520;28;1828;-70
2024/03/18 01:07:53;;;;;;;13.97;8.77;;;;;;;;;;699498;28;4401;-69
2024/03/18 01:08:13;;;;;;;12.73;8.17;;;;;;;;;;700685;28;1269;-68
2024/03/18 01:08:34;;;;;;;12.25;8.75;;;;;;;;;;699222;28;2024;-69
2024/03/18 01:08:54;;;;;;;12.10;8.33;;;;;;;;;;701235;28;821;-70
2024/03/18 01:09:16;;;;;;;11.23;7.72;;;;;;;;;;700829;28;945;-70
2024/03/18 01:09:37;;;;;;;12.18;7.88;;;;;;;;;;698577;28;1945;-72
2024/03/18 01:09:58;;;;;;;12.10;7.90;;;;;;;;;;700291;28;1420;-70
2024/03/18 01:10:18;;;;;;;12.83;8.40;;;;;;;;;;696540;28;2563;-70
2024/03/18 01:10:38;;;;;;;12.47;8.33;;;;;;;;;;697729;28;4316;-70
2024/03/18 01:10:58;;;;;;;13.38;8.55;;;;;;;;;;698060;28;900;-70
2024/03/18 01:11:19;;;;;;;13.00;8.10;;;;;;;;;;696713;28;1834;-70
2024/03/18 01:11:39;;;;;;;12.05;8.15;;;;;;;;;;700426;28;1007;-69
2024/03/18 01:12:00;;;;;;;12.37;8.27;;;;;;;;;;700722;28;821;-69
2024/03/18 01:12:20;;;;;;;12.77;8.40;;;;;;;;;;699569;28;1808;-68
2024/03/18 01:12:40;;;;;;;13.20;8.47;;;;;;;;;;701018;28;963;-70
2024/03/18 01:13:01;;;;;;;12.70;8.00;;;;;;;;;;700686;28;1300;-70
2024/03/18 01:13:21;;;;;;;12.23;8.10;;;;;;;;;;699644;28;1380;-69
2024/03/18 01:13:47;;;;;;;12.15;8.05;;;;;;;;;;698610;28;4543;-67
2024/03/18 01:14:07;;;;;;;12.88;8.10;;;;;;;;;;699207;28;829;-69
2024/03/18 01:14:27;;;;;;;12.27;7.73;;;;;;;;;;695679;28;988;-70
2024/03/18 01:14:47;;;;;;;12.33;8.13;;;;;;;;;;696449;28;1257;-69
2024/03/18 01:15:08;;;;;;;12.87;7.67;;;;;;;;;;697562;28;987;-69
2024/03/18 01:15:28;;;;;;;12.27;7.57;;;;;;;;;;696191;28;2161;-70
2024/03/18 01:15:48;;;;;;;11.32;7.88;;;;;;;;;;696378;28;1026;-70
2024/03/18 01:16:09;;;;;;;13.20;8.17;;;;;;;;;;696492;28;801;-69
2024/03/18 01:16:30;;;;;;;12.02;7.90;;;;;;;;;;699009;28;1463;-69
2024/03/18 01:16:50;;;;;;;13.82;8.07;;;;;;;;;;699917;28;4469;-70
2024/03/18 01:17:12;;;;;;;12.27;7.77;;;;;;;;;;698593;28;1050;-70
2024/03/18 01:17:33;;;;;;;12.45;8.13;;;;;;;;;;698884;28;1758;-69
2024/03/18 01:17:53;;;;;;;12.33;8.20;;;;;;;;;;700876;28;959;-68
2024/03/18 01:18:13;;;;;;;11.50;7.50;;;;;;;;;;699758;28;1262;-72
2024/03/18 01:18:34;;;;;;;12.60;7.70;;;;;;;;;;698829;28;2035;-70
2024/03/18 01:18:55;;;;;;;12.77;7.57;;;;;;;;;;701301;28;869;-68
2024/03/18 01:19:15;;;;;;;12.23;7.63;;;;;;;;;;700343;28;943;-69
2024/03/18 01:19:37;;;;;;;11.55;7.50;;;;;;;;;;699620;28;4318;-68
2024/03/18 01:19:57;;;;;;;11.95;7.38;;;;;;;;;;700930;28;831;-68
2024/03/18 01:20:19;;;;;;;12.70;7.83;;;;;;;;;;700659;28;928;-68
2024/03/18 01:20:39;;;;;;;11.85;7.78;;;;;;;;;;700389;28;960;-69
2024/03/18 01:20:59;;;;;;;11.83;7.30;;;;;;;;;;701523;28;984;-70
2024/03/18 01:21:20;;;;;;;11.90;7.57;;;;;;;;;;700514;28;1783;-69
2024/03/18 01:21:41;;;;;;;13.15;7.97;;;;;;;;;;700859;28;1038;-70
2024/03/18 01:22:01;;;;;;;12.30;7.43;;;;;;;;;;700952;28;1594;-70
2024/03/18 01:22:22;;;;;;;10.68;7.20;;;;;;;;;;701038;28;1883;-69
2024/03/18 01:22:42;;;;;;;11.83;7.47;;;;;;;;;;700145;28;4317;-70
2024/03/18 01:23:03;;;;;;;12.63;7.50;;;;;;;;;;700398;28;1328;-70
2024/03/18 01:23:23;;;;;;;14.20;7.53;;;;;;;;;;701353;28;1812;-70
2024/03/18 01:23:45;;;;;;;11.53;7.20;;;;;;;;;;701461;28;1266;-70
2024/03/18 01:24:06;;;;;;;12.35;7.35;;;;;;;;;;700694;28;1160;-69
2024/03/18 01:24:27;;;;;;;13.20;7.70;;;;;;;;;;700719;28;2220;-69
2024/03/18 01:24:47;;;;;;;11.43;7.22;;;;;;;;;;700119;28;873;-70
2024/03/18 01:25:13;;;;;;;10.88;7.45;;;;;;;;;;699599;28;1289;-68
2024/03/18 01:25:36;;;;;;;11.75;7.25;;;;;;;;;;700670;28;1109;-70
2024/03/18 01:25:57;;;;;;;11.30;7.30;;;;;;;;;;698419;28;4602;-68
2024/03/18 01:26:18;;;;;;;12.57;7.33;;;;;;;;;;699370;28;1380;-69
2024/03/18 01:26:38;;;;;;;12.07;7.15;;;;;;;;;;700386;28;853;-69
2024/03/18 01:26:58;;;;;;;10.87;7.10;;;;;;;;;;701212;28;1116;-69
2024/03/18 01:27:19;;;;;;;11.40;7.07;;;;;;;;;;699908;28;1933;-69
2024/03/18 01:27:39;;;;;;;10.23;6.85;;;;;;;;;;701302;28;972;-69
2024/03/18 01:28:00;;;;;;;10.43;6.67;;;;;;;;;;701024;28;752;-68
2024/03/18 01:28:21;;;;;;;11.68;7.45;;;;;;;;;;697248;28;1801;-69
2024/03/18 01:28:41;;;;;;;11.35;7.47;;;;;;;;;;696583;28;4352;-68
2024/03/18 01:29:02;;;;;;;11.32;7.82;;;;;;;;;;698846;28;824;-68
2024/03/18 01:29:22;;;;;;;11.63;7.77;;;;;;;;;;700582;28;1487;-69
2024/03/18 01:29:42;;;;;;;11.93;7.50;;;;;;;;;;701331;28;1941;-69
2024/03/18 01:30:03;;;;;;;10.85;6.97;;;;;;;;;;700765;28;948;-68
2024/03/18 01:30:23;;;;;;;10.70;6.97;;;;;;;;;;697188;28;1889;-69
2024/03/18 01:30:43;;;;;;;12.70;7.43;;;;;;;;;;698829;28;1266;-70
2024/03/18 01:31:03;;;;;;;12.00;7.60;;;;;;;;;;697310;28;1209;-68
2024/03/18 01:31:24;;;;;;;12.13;7.50;;;;;;;;;;697235;28;2548;-70
2024/03/18 01:31:44;;;;;;;11.23;7.03;;;;;;;;;;699091;28;4571;-69
2024/03/18 01:32:05;;;;;;;11.18;7.35;;;;;;;;;;697270;28;1377;-70
2024/03/18 01:32:25;;;;;;;10.97;6.87;;;;;;;;;;697298;28;1573;-69
2024/03/18 01:32:45;;;;;;;11.65;7.07;;;;;;;;;;698193;28;897;-70
2024/03/18 01:33:06;;;;;;;12.43;7.30;;;;;;;;;;698377;28;1014;-68
2024/03/18 01:33:26;;;;;;;11.15;6.85;;;;;;;;;;697304;28;3831;-68
2024/03/18 01:33:47;;;;;;;10.20;7.07;;;;;;;;;;699612;28;752;-68
2024/03/18 01:34:10;;;;;;;10.77;7.05;;;;;;;;;;701433;28;870;-72
2024/03/18 01:34:30;;;;;;;9.73;6.53;;;;;;;;;;700362;28;1522;-72
2024/03/18 01:34:50;;;;;;;10.90;7.00;;;;;;;;;;699720;28;4411;-71
2024/03/18 01:35:13;;;;;;;12.00;6.97;;;;;;;;;;701208;28;987;-66
2024/03/18 01:35:34;;;;;;;12.23;7.10;;;;;;;;;;700515;28;2346;-71
2024/03/18 01:35:54;;;;;;;11.70;6.87;;;;;;;;;;700947;28;801;-69
2024/03/18 01:36:15;;;;;;;11.60;7.15;;;;;;;;;;701333;28;766;-70
2024/03/18 01:36:35;;;;;;;11.63;7.17;;;;;;;;;;700101;28;1486;-71
2024/03/18 01:36:55;;;;;;;11.53;7.17;;;;;;;;;;700655;28;1296;-70
2024/03/18 01:37:16;;;;;;;11.52;7.15;;;;;;;;;;701488;28;829;-68
2024/03/18 01:37:36;;;;;;;12.17;7.50;;;;;;;;;;700459;28;4712;-66
2024/03/18 01:37:56;;;;;;;12.77;7.13;;;;;;;;;;701602;28;911;-67
2024/03/18 01:38:16;;;;;;;11.38;6.97;;;;;;;;;;701463;28;1454;-68
2024/03/18 01:38:37;;;;;;;11.77;6.83;;;;;;;;;;700261;28;2684;-69
2024/03/18 01:38:57;;;;;;;11.60;7.10;;;;;;;;;;702119;28;1196;-68
2024/03/18 01:39:19;;;;;;;11.35;7.55;;;;;;;;;;701024;28;722;-68
2024/03/18 01:39:40;;;;;;;10.93;6.85;;;;;;;;;;700854;28;1093;-68
2024/03/18 01:40:00;;;;;;;10.95;6.75;;;;;;;;;;701333;28;904;-67
2024/03/18 01:40:21;;;;;;;12.47;7.20;;;;;;;;;;699884;28;2117;-68
2024/03/18 01:40:44;;;;;;;11.30;6.78;;;;;;;;;;700470;28;4505;-67
2024/03/18 01:41:05;;;;;;;10.90;6.68;;;;;;;;;;700890;28;1383;-68
2024/03/18 01:41:25;;;;;;;10.80;7.00;;;;;;;;;;700816;28;1971;-66
2024/03/18 01:41:46;;;;;;;10.27;6.90;;;;;;;;;;701107;28;888;-67
2024/03/18 01:42:07;;;;;;;11.27;7.22;;;;;;;;;;697827;28;921;-67
2024/03/18 01:42:27;;;;;;;10.57;7.15;;;;;;;;;;699513;28;2184;-67
2024/03/18 01:42:47;;;;;;;10.60;6.90;;;;;;;;;;700237;28;1340;-66
2024/03/18 01:43:11;;;;;;;11.55;7.00;;;;;;;;;;700792;28;908;-67
2024/03/18 01:43:35;;;;;;;12.20;7.20;;;;;;;;;;700988;28;1528;-67
2024/03/18 01:43:55;;;;;;;10.13;6.85;;;;;;;;;;699727;28;4266;-67
2024/03/18 01:44:16;;;;;;;10.25;6.88;;;;;;;;;;700906;28;1332;-67
2024/03/18 01:44:50;;;;;;;11.23;7.13;;;;;;;;;;700229;28;2362;-67
2024/03/18 01:45:16;;;;;;;10.82;6.80;;;;;;;;;;701089;28;952;-67
2024/03/18 01:45:38;;;;;;;11.77;6.82;;;;;;;;;;700431;28;1048;-66
2024/03/18 01:45:58;;;;;;;11.13;6.82;;;;;;;;;;700206;28;1328;-66
2024/03/18 01:46:18;;;;;;;11.43;6.73;;;;;;;;;;700436;28;1327;-67
2024/03/18 01:46:39;;;;;;;11.60;6.87;;;;;;;;;;698048;28;4460;-67
2024/03/18 01:46:59;;;;;;;12.65;6.97;;;;;;;;;;696252;28;924;-66
2024/03/18 01:47:23;;;;;;;11.87;6.93;;;;;;;;;;696363;28;749;-69
2024/03/18 01:47:43;;;;;;;10.00;6.72;;;;;;;;;;695025;28;849;-66
2024/03/18 01:48:04;;;;;;;10.40;6.57;;;;;;;;;;693927;28;1220;-68
2024/03/18 01:48:24;;;;;;;10.77;6.53;;;;;;;;;;695949;28;1627;-67
2024/03/18 01:48:45;;;;;;;11.23;6.60;;;;;;;;;;699065;28;1194;-66
2024/03/18 01:49:06;;;;;;;9.95;6.20;;;;;;;;;;701103;28;936;-68
2024/03/18 01:49:27;;;;;;;10.15;6.43;;;;;;;;;;698060;28;1569;-67
2024/03/18 01:49:48;;;;;;;9.37;6.33;;;;;;;;;;699945;28;4712;-67
2024/03/18 01:50:09;;;;;;;9.85;6.53;;;;;;;;;;699799;28;1003;-67
2024/03/18 01:50:30;;;;;;;11.55;6.40;;;;;;;;;;700535;28;1714;-68
2024/03/18 01:50:50;;;;;;;11.90;6.23;;;;;;;;;;699641;28;4786;-67
2024/03/18 01:51:11;;;;;;;12.67;7.10;;;;;;;;;;700558;28;1308;-67
2024/03/18 01:51:31;;;;;;;10.63;6.63;;;;;;;;;;699650;28;1687;-67
2024/03/18 01:51:51;;;;;;;11.10;6.63;;;;;;;;;;701595;28;757;-67
2024/03/18 01:52:12;;;;;;;13.07;6.80;;;;;;;;;;701574;28;909;-67
2024/03/18 01:52:32;;;;;;;12.43;6.90;;;;;;;;;;699387;28;1457;-68
2024/03/18 01:52:52;;;;;;;11.80;6.57;;;;;;;;;;700270;28;4280;-68
2024/03/18 01:53:13;;;;;;;10.63;6.63;;;;;;;;;;700092;28;875;-67
2024/03/18 01:53:33;;;;;;;11.77;6.57;;;;;;;;;;699884;28;1849;-68
2024/03/18 01:53:53;;;;;;;11.93;6.90;;;;;;;;;;700981;28;920;-68
2024/03/18 01:54:14;;;;;;;10.90;6.70;;;;;;;;;;701294;28;897;-68
2024/03/18 01:54:34;;;;;;;10.15;6.65;;;;;;;;;;699997;28;2050;-68
2024/03/18 01:54:55;;;;;;;10.90;6.50;;;;;;;;;;700705;28;1192;-66
2024/03/18 01:55:16;;;;;;;9.80;6.15;;;;;;;;;;701370;28;896;-68
2024/03/18 01:55:38;;;;;;;9.93;6.07;;;;;;;;;;700518;28;4380;-67
2024/03/18 01:55:59;;;;;;;10.85;6.40;;;;;;;;;;700944;28;923;-68
2024/03/18 01:56:20;;;;;;;10.57;6.70;;;;;;;;;;700305;28;1089;-67
2024/03/18 01:56:40;;;;;;;10.37;6.57;;;;;;;;;;699112;28;1729;-66
2024/03/18 01:57:01;;;;;;;9.85;6.30;;;;;;;;;;701267;28;907;-68
2024/03/18 01:57:21;;;;;;;9.30;6.27;;;;;;;;;;700023;28;1565;-66
2024/03/18 01:57:41;;;;;;;9.50;6.73;;;;;;;;;;698476;28;1123;-68
2024/03/18 01:58:01;;;;;;;10.70;6.53;;;;;;;;;;701100;28;935;-68
2024/03/18 01:58:22;;;;;;;10.63;6.10;;;;;;;;;;699926;28;1937;-69
2024/03/18 01:58:44;;;;;;;9.93;6.07;;;;;;;;;;700938;28;4396;-68
2024/03/18 01:59:05;;;;;;;9.32;6.10;;;;;;;;;;701227;28;902;-68
2024/03/18 01:59:25;;;;;;;10.90;6.10;;;;;;;;;;698350;28;1874;-67
2024/03/18 01:59:45;;;;;;;9.77;6.20;;;;;;;;;;700289;28;4643;-68
2024/03/18 02:00:13;;;;;;;10.00;6.00;;;;;;;;;;700275;28;865;-67
2024/03/18 02:00:37;;;;;;;9.98;6.25;;;;;;;;;;699160;28;1513;-67
2024/03/18 02:01:30;;;;;;;11.18;6.13;;;;;;;;;;684312;28;1773;-68
2024/03/18 02:01:50;;;;;;;9.52;5.97;;;;;;;;;;689335;28;4575;-67
2024/03/18 02:02:11;;;;;;;9.57;6.10;;;;;;;;;;688930;28;915;-68
2024/03/18 02:02:32;;;;;;;10.13;6.13;;;;;;;;;;687919;28;1620;-68
2024/03/18 02:02:52;;;;;;;10.07;6.25;;;;;;;;;;688374;28;2642;-67
2024/03/18 02:03:12;;;;;;;10.73;6.30;;;;;;;;;;690366;28;781;-68
2024/03/18 02:03:33;;;;;;;10.07;6.30;;;;;;;;;;689146;28;1716;-67
2024/03/18 02:03:53;;;;;;;11.10;6.33;;;;;;;;;;689763;28;813;-67
2024/03/18 02:04:15;;;;;;;11.30;6.05;;;;;;;;;;690328;28;844;-67
2024/03/18 02:04:36;;;;;;;10.55;6.10;;;;;;;;;;689461;28;1453;-68
2024/03/18 02:04:56;;;;;;;10.93;6.03;;;;;;;;;;692172;28;4393;-68
2024/03/18 02:05:16;;;;;;;11.00;6.30;;;;;;;;;;691525;28;1420;-67
2024/03/18 02:05:37;;;;;;;9.70;6.20;;;;;;;;;;691461;28;2175;-68
2024/03/18 02:05:58;;;;;;;11.23;6.35;;;;;;;;;;691973;28;1189;-66
2024/03/18 02:06:18;;;;;;;10.07;6.13;;;;;;;;;;693008;28;1114;-67
2024/03/18 02:06:41;;;;;;;10.98;6.35;;;;;;;;;;691555;28;979;-68
2024/03/18 02:07:16;;;;;;;10.20;6.20;;;;;;;;;;692410;28;1039;-68
2024/03/18 02:07:37;;;;;;;11.73;6.53;;;;;;;;;;689541;28;4517;-67
2024/03/18 02:07:58;;;;;;;12.57;6.53;;;;;;;;;;691844;28;833;-66
2024/03/18 02:08:18;;;;;;;10.50;6.20;;;;;;;;;;688789;28;999;-68
2024/03/18 02:08:38;;;;;;;10.43;6.40;;;;;;;;;;689005;28;2161;-68
2024/03/18 02:08:59;;;;;;;9.97;6.47;;;;;;;;;;689901;28;969;-68
2024/03/18 02:09:19;;;;;;;8.75;6.03;;;;;;;;;;690119;28;1122;-67
2024/03/18 02:09:40;;;;;;;9.00;6.07;;;;;;;;;;689025;28;2364;-67
2024/03/18 02:10:01;;;;;;;9.95;6.07;;;;;;;;;;689804;28;963;-65